Time;durP1;ratioP1;P1;durP2;ratioP2;P2;SDS_P1;SDS_P2;PMS_P1;PMS_P2;Temp;Humidity;BMP_temperature;BMP_pressure;BME280_temperature;BME280_humidity;BME280_pressure;Samples;Min_cycle;Max_cycle;Signal;HPM_P1;HPM_P2
2021/08/28 00:00:18;;;;;;;1999.90;999.90;;;;;;;13.95;85.52;97983.00;5064692;28;20503;-69
2021/08/28 00:02:45;;;;;;;1999.90;999.90;;;;;;;13.81;86.08;97988.19;5053146;28;20056;-69
2021/08/28 00:05:12;;;;;;;1999.90;999.90;;;;;;;13.87;85.91;97983.97;5053616;28;20053;-69
2021/08/28 00:07:39;;;;;;;1999.90;999.90;;;;;;;13.79;85.82;97987.72;5053031;28;20053;-69
2021/08/28 00:10:08;;;;;;;1999.90;999.90;;;;;;;13.88;85.23;97989.16;5052957;28;20387;-69
2021/08/28 00:12:35;;;;;;;1999.90;999.90;;;;;;;13.76;85.34;97985.66;5060834;28;20054;-69
2021/08/28 00:15:04;;;;;;;1999.90;999.90;;;;;;;13.78;85.34;97991.66;5058147;28;20094;-69
2021/08/28 00:17:34;;;;;;;1999.90;999.90;;;;;;;13.69;85.83;97995.41;5053549;28;20057;-68
2021/08/28 00:20:05;;;;;;;1999.90;999.90;;;;;;;13.65;86.73;97994.53;5053504;28;20045;-68
2021/08/28 00:22:32;;;;;;;1999.90;999.90;;;;;;;13.57;87.44;97995.47;5052734;28;20045;-68
2021/08/28 00:24:59;;;;;;;1999.90;999.90;;;;;;;13.48;88.01;98001.19;5053030;28;20048;-68
2021/08/28 00:27:25;;;;;;;1999.90;999.90;;;;;;;13.35;89.27;98000.44;5052011;28;20041;-68
2021/08/28 00:29:52;;;;;;;1999.90;999.90;;;;;;;13.37;89.41;97995.31;5053869;28;20041;-68
2021/08/28 00:32:18;;;;;;;1999.90;999.90;;;;;;;13.69;88.17;97991.81;5052961;28;20053;-68
2021/08/28 00:34:45;;;;;;;1999.90;999.90;;;;;;;13.98;86.83;98006.47;5052212;28;20052;-68
2021/08/28 00:37:12;;;;;;;1999.90;999.90;;;;;;;13.78;87.16;98002.78;5051013;28;20072;-68
2021/08/28 00:39:38;;;;;;;1999.90;999.90;;;;;;;13.82;87.53;97993.38;5052282;28;20452;-68
2021/08/28 00:42:05;;;;;;;1999.90;999.90;;;;;;;13.76;87.67;97994.00;5050050;28;20389;-68
2021/08/28 00:44:32;;;;;;;1999.90;999.90;;;;;;;13.71;88.03;98000.59;5054052;28;20045;-69
2021/08/28 00:46:58;;;;;;;1999.90;999.90;;;;;;;13.62;88.37;98000.78;5051374;28;20103;-69
2021/08/28 00:49:25;;;;;;;1999.90;999.90;;;;;;;13.75;88.03;97998.75;5050768;28;20122;-69
2021/08/28 00:51:52;;;;;;;1999.90;999.90;;;;;;;13.63;88.45;97999.59;5052574;28;20052;-69
2021/08/28 00:54:18;;;;;;;1999.90;999.90;;;;;;;13.64;88.73;97998.44;5053072;28;20076;-68
2021/08/28 00:56:45;;;;;;;1999.90;999.90;;;;;;;13.67;88.48;97997.75;5052107;28;20084;-68
2021/08/28 00:59:13;;;;;;;1999.90;999.90;;;;;;;13.66;88.31;97996.13;5051586;28;20044;-68
2021/08/28 01:01:41;;;;;;;1999.90;999.90;;;;;;;13.08;91.02;98003.94;5053165;28;20102;-69
2021/08/28 01:04:14;;;;;;;1999.90;999.90;;;;;;;12.93;91.65;97997.97;5052133;28;20049;-68
2021/08/28 01:07:08;;;;;;;1999.90;999.90;;;;;;;13.36;89.90;97999.25;5052381;28;20438;-68
2021/08/28 01:09:37;;;;;;;1999.90;999.90;;;;;;;13.32;89.74;97992.78;5045000;28;20040;-69
2021/08/28 01:12:13;;;;;;;1999.90;999.90;;;;;;;13.12;90.76;98004.88;5052876;28;20099;-69
2021/08/28 01:14:44;;;;;;;1999.90;999.90;;;;;;;13.18;90.59;98000.69;5055417;28;20511;-69
2021/08/28 01:17:14;;;;;;;1999.90;999.90;;;;;;;13.46;89.04;98003.50;5064481;28;20076;-69
2021/08/28 01:19:40;;;;;;;1999.90;999.90;;;;;;;13.46;89.05;98003.50;5051329;28;20078;-69
2021/08/28 01:22:10;;;;;;;1999.90;999.90;;;;;;;13.71;87.94;98006.16;5052009;28;20049;-69
2021/08/28 01:24:40;;;;;;;1999.90;999.90;;;;;;;13.61;88.27;98004.72;5060134;28;20075;-69
2021/08/28 01:27:15;;;;;;;1999.90;999.90;;;;;;;13.16;90.52;98000.22;5051580;28;20044;-69
2021/08/28 01:29:42;;;;;;;1999.90;999.90;;;;;;;13.35;89.66;98007.94;5052349;28;20102;-69
2021/08/28 01:32:10;;;;;;;1999.90;999.90;;;;;;;13.46;88.56;97995.19;5051979;28;20075;-69
2021/08/28 01:34:38;;;;;;;1999.90;999.90;;;;;;;13.21;89.82;98005.53;5052023;28;20045;-69
2021/08/28 01:37:08;;;;;;;1999.90;999.90;;;;;;;13.44;89.03;98005.00;5051568;28;20405;-69
2021/08/28 01:39:36;;;;;;;1999.90;999.90;;;;;;;13.54;88.21;97999.75;5051386;28;20053;-69
2021/08/28 01:42:04;;;;;;;1999.90;999.90;;;;;;;13.67;87.91;98008.84;5051425;28;20504;-69
2021/08/28 01:44:33;;;;;;;1999.90;999.90;;;;;;;13.79;87.41;98004.41;5051234;28;20052;-68
2021/08/28 01:46:59;;;;;;;1999.90;999.90;;;;;;;13.52;87.76;98002.09;5052318;28;20053;-68
2021/08/28 01:49:27;;;;;;;1999.90;999.90;;;;;;;13.60;87.84;98008.66;5051232;28;20112;-68
2021/08/28 01:51:53;;;;;;;1999.90;999.90;;;;;;;13.55;87.81;98008.91;5049309;28;20049;-68
2021/08/28 01:54:20;;;;;;;1999.90;999.90;;;;;;;13.52;87.82;98001.28;5052404;28;20049;-68
2021/08/28 01:56:47;;;;;;;1999.90;999.90;;;;;;;13.49;88.16;98002.00;5051233;28;20048;-68
2021/08/28 01:59:14;;;;;;;1999.90;999.90;;;;;;;13.27;88.65;98006.91;5049978;28;20079;-68
2021/08/28 02:01:41;;;;;;;1999.90;999.90;;;;;;;13.58;88.12;98010.97;5052820;28;20069;-68
2021/08/28 02:04:08;;;;;;;1999.90;999.90;;;;;;;13.70;87.53;98001.78;5050965;28;20144;-68
2021/08/28 02:06:50;;;;;;;1999.90;999.90;;;;;;;13.58;87.56;97999.88;5051328;28;20049;-68
2021/08/28 02:09:41;;;;;;;1999.90;999.90;;;;;;;13.72;87.44;98000.25;5035457;28;20095;-68
2021/08/28 02:12:19;;;;;;;1999.90;999.90;;;;;;;13.68;87.53;97998.53;5049612;28;20090;-68
2021/08/28 02:14:58;;;;;;;1999.90;999.90;;;;;;;13.37;88.15;97991.75;5051247;28;20053;-68
2021/08/28 02:17:27;;;;;;;1999.90;999.90;;;;;;;13.62;87.72;97995.22;5051067;28;20048;-68
2021/08/28 02:19:57;;;;;;;1999.90;999.90;;;;;;;13.67;87.21;97994.97;5050234;28;20089;-68
2021/08/28 02:22:34;;;;;;;1999.90;999.90;;;;;;;13.80;86.93;97994.88;5051523;28;20077;-68
2021/08/28 02:25:07;;;;;;;1999.90;999.90;;;;;;;13.53;87.73;97991.78;5050978;28;20053;-68
2021/08/28 02:27:46;;;;;;;1999.90;999.90;;;;;;;13.35;88.80;97989.31;5051497;28;20426;-68
2021/08/28 02:30:17;;;;;;;1999.90;999.90;;;;;;;13.56;87.46;97985.50;5034846;28;20041;-68
2021/08/28 02:32:48;;;;;;;1999.90;999.90;;;;;;;13.30;89.15;97989.53;5054073;28;20041;-68
2021/08/28 02:35:15;;;;;;;1999.90;999.90;;;;;;;13.43;88.25;97992.28;5054260;28;20373;-68
2021/08/28 02:37:45;;;;;;;1999.90;999.90;;;;;;;13.41;88.12;97989.06;5050138;28;20553;-68
2021/08/28 02:40:14;;;;;;;1999.90;999.90;;;;;;;13.54;87.85;97998.97;5050482;28;20048;-68
2021/08/28 02:42:44;;;;;;;1999.90;999.90;;;;;;;13.52;87.93;97988.19;5059002;28;20520;-68
2021/08/28 02:45:18;;;;;;;1999.90;999.90;;;;;;;13.29;88.82;97993.47;5058700;28;20049;-68
2021/08/28 02:47:47;;;;;;;1999.90;999.90;;;;;;;13.17;89.11;97988.78;5050455;28;20087;-68
2021/08/28 02:50:16;;;;;;;1999.90;999.90;;;;;;;13.32;89.32;97989.19;5051658;28;20095;-68
2021/08/28 02:52:48;;;;;;;1999.90;999.90;;;;;;;13.36;89.01;97990.13;5050686;28;20501;-68
2021/08/28 02:55:16;;;;;;;1999.90;999.90;;;;;;;13.20;89.68;97990.84;5051112;28;20102;-68
2021/08/28 02:57:47;;;;;;;1999.90;999.90;;;;;;;13.32;89.21;97987.22;5050790;28;20492;-68
2021/08/28 03:00:16;;;;;;;1999.90;999.90;;;;;;;13.11;89.60;97984.59;5050366;28;20049;-68
2021/08/28 03:02:45;;;;;;;1999.90;999.90;;;;;;;13.33;89.06;97982.47;5049196;28;20044;-68
2021/08/28 03:05:14;;;;;;;1999.90;999.90;;;;;;;13.50;88.37;97990.53;5050307;28;20455;-68
2021/08/28 03:07:41;;;;;;;1999.90;999.90;;;;;;;13.29;89.12;97990.69;5051074;28;20049;-68
2021/08/28 03:10:09;;;;;;;1999.90;999.90;;;;;;;13.26;89.51;97985.84;5051913;28;20071;-68
2021/08/28 03:12:39;;;;;;;1999.90;999.90;;;;;;;13.25;89.59;97981.47;5054792;28;20099;-69
2021/08/28 03:15:07;;;;;;;1999.90;999.90;;;;;;;13.22;89.92;97984.94;5052978;28;20495;-68
2021/08/28 03:17:37;;;;;;;1999.90;999.90;;;;;;;13.57;88.56;97976.03;5053583;28;20137;-68
2021/08/28 03:20:08;;;;;;;1999.90;999.90;;;;;;;13.65;88.30;97977.03;5053004;28;20312;-68
2021/08/28 03:22:36;;;;;;;1999.90;999.90;;;;;;;13.58;88.50;97972.09;5043588;28;20113;-68
2021/08/28 03:25:05;;;;;;;1999.90;999.90;;;;;;;13.42;89.20;97974.81;5054126;28;20500;-68
2021/08/28 03:27:32;;;;;;;1999.90;999.90;;;;;;;13.43;89.43;97970.88;5053102;28;20052;-68
2021/08/28 03:30:00;;;;;;;1999.90;999.90;;;;;;;13.64;88.70;97975.44;5051031;28;20049;-68
2021/08/28 03:32:27;;;;;;;1999.90;999.90;;;;;;;13.65;88.76;97977.84;5052569;28;20092;-68
2021/08/28 03:34:54;;;;;;;1999.90;999.90;;;;;;;13.62;89.22;97977.75;5051863;28;20095;-68
2021/08/28 03:37:21;;;;;;;1999.90;999.90;;;;;;;13.71;88.76;97986.72;5052186;28;20430;-68
2021/08/28 03:39:48;;;;;;;1999.90;999.90;;;;;;;13.67;88.84;97981.06;5052051;28;20076;-68
2021/08/28 03:42:15;;;;;;;1999.90;999.90;;;;;;;13.30;90.45;97983.19;5052075;28;20057;-68
2021/08/28 03:44:41;;;;;;;1999.90;999.90;;;;;;;13.48;89.71;97986.50;5059255;28;20511;-68
2021/08/28 03:47:12;;;;;;;1999.90;999.90;;;;;;;13.71;88.53;97981.97;5053028;28;20045;-68
2021/08/28 03:49:39;;;;;;;1999.90;999.90;;;;;;;13.97;87.46;97977.09;5063880;28;20456;-68
2021/08/28 03:52:06;;;;;;;1999.90;999.90;;;;;;;13.68;88.18;97977.13;5059530;28;20044;-68
2021/08/28 03:54:32;;;;;;;1999.90;999.90;;;;;;;13.78;88.23;97983.34;5053028;28;20400;-68
2021/08/28 03:56:59;;;;;;;1999.90;999.90;;;;;;;13.99;87.01;97974.75;5056318;28;20048;-68
2021/08/28 03:59:26;;;;;;;1999.90;999.90;;;;;;;13.89;86.95;97976.91;5054133;28;20079;-68
2021/08/28 04:01:53;;;;;;;1999.90;999.90;;;;;;;13.71;87.42;97981.97;5052597;28;20041;-68
2021/08/28 04:04:21;;;;;;;1999.90;999.90;;;;;;;13.97;87.05;97977.88;5052113;28;20056;-68
2021/08/28 04:06:47;;;;;;;1999.90;999.90;;;;;;;13.91;86.67;97973.75;5053334;28;20102;-68
2021/08/28 04:09:14;;;;;;;1999.90;999.90;;;;;;;14.04;86.48;97983.63;5053315;28;20159;-68
2021/08/28 04:11:43;;;;;;;1999.90;999.90;;;;;;;14.13;86.03;97972.34;5039985;28;20045;-68
2021/08/28 04:14:10;;;;;;;1999.90;999.90;;;;;;;13.76;87.18;97982.91;5054041;28;20049;-68
2021/08/28 04:16:36;;;;;;;1999.90;999.90;;;;;;;13.31;88.60;97985.59;5052658;28;20075;-68
2021/08/28 04:19:03;;;;;;;1999.90;999.90;;;;;;;13.44;88.72;97989.16;5052590;28;20040;-68
2021/08/28 04:21:30;;;;;;;1999.90;999.90;;;;;;;13.45;88.68;97989.97;5052774;28;20045;-68
2021/08/28 04:23:56;;;;;;;1999.90;999.90;;;;;;;13.63;87.65;97991.28;5053203;28;20114;-68
2021/08/28 04:26:24;;;;;;;1999.90;999.90;;;;;;;13.59;87.59;97984.84;5051954;28;20088;-68
2021/08/28 04:28:54;;;;;;;1999.90;999.90;;;;;;;13.57;87.52;97992.69;5054212;28;20071;-68
2021/08/28 04:31:22;;;;;;;1999.90;999.90;;;;;;;13.04;89.75;97992.75;5052891;28;20064;-68
2021/08/28 04:33:49;;;;;;;1999.90;999.90;;;;;;;13.42;88.50;97988.72;5051556;28;20063;-68
2021/08/28 04:36:16;;;;;;;1999.90;999.90;;;;;;;13.48;88.15;97989.28;5036908;28;20103;-68
2021/08/28 04:38:43;;;;;;;1999.90;999.90;;;;;;;13.56;88.15;97993.84;5053354;28;20436;-68
2021/08/28 04:41:09;;;;;;;1999.90;999.90;;;;;;;13.83;86.90;97999.72;5052087;28;20037;-68
2021/08/28 04:43:36;;;;;;;1999.90;999.90;;;;;;;14.11;85.94;97999.69;5051770;28;20057;-68
2021/08/28 04:46:02;;;;;;;1999.90;999.90;;;;;;;13.84;86.38;97999.38;5053642;28;20045;-68
2021/08/28 04:48:31;;;;;;;1999.90;999.90;;;;;;;13.37;87.95;97994.53;5051945;28;20037;-68
2021/08/28 04:50:58;;;;;;;1999.90;999.90;;;;;;;13.63;86.97;98002.38;5050314;28;20109;-68
2021/08/28 04:53:25;;;;;;;1999.90;999.90;;;;;;;13.81;86.24;98000.09;5054107;28;20040;-68
2021/08/28 04:55:51;;;;;;;1999.90;999.90;;;;;;;14.12;85.45;97994.94;5052685;28;20115;-68
2021/08/28 04:58:18;;;;;;;1999.90;999.90;;;;;;;14.03;85.20;98004.25;5051085;28;20126;-68
2021/08/28 05:00:45;;;;;;;1999.90;999.90;;;;;;;14.08;86.37;97997.63;5051850;28;20045;-68
2021/08/28 05:03:12;;;;;;;1999.90;999.90;;;;;;;14.38;85.19;98011.91;5053305;28;20056;-68
2021/08/28 05:05:38;;;;;;;1999.90;999.90;;;;;;;14.39;84.35;98009.91;5052291;28;20049;-68
2021/08/28 05:08:05;;;;;;;1999.90;999.90;;;;;;;14.29;84.96;98010.47;5053737;28;20052;-68
2021/08/28 05:10:32;;;;;;;1999.90;999.90;;;;;;;13.72;86.69;98013.34;5052516;28;20048;-69
2021/08/28 05:12:58;;;;;;;1999.90;999.90;;;;;;;14.15;85.93;98016.47;5051810;28;20452;-69
2021/08/28 05:15:25;;;;;;;1999.90;999.90;;;;;;;14.05;86.46;98015.00;5052465;28;20061;-69
2021/08/28 05:17:51;;;;;;;1999.90;999.90;;;;;;;14.19;85.88;98014.59;5051545;28;20075;-68
2021/08/28 05:20:18;;;;;;;1999.90;999.90;;;;;;;14.53;85.43;98015.00;5050836;28;20044;-68
2021/08/28 05:22:45;;;;;;;1999.90;999.90;;;;;;;14.54;84.79;98011.06;5050942;28;20045;-69
2021/08/28 05:25:12;;;;;;;1999.90;999.90;;;;;;;14.86;83.89;98005.50;5051468;28;20075;-69
2021/08/28 05:27:38;;;;;;;1999.90;999.90;;;;;;;14.92;83.75;98004.06;5051954;28;20060;-68
2021/08/28 05:30:05;;;;;;;1999.90;999.90;;;;;;;15.08;83.23;97996.47;5051786;28;20048;-68
2021/08/28 05:32:32;;;;;;;1999.90;999.90;;;;;;;15.18;82.51;97999.84;5050535;28;20491;-68
2021/08/28 05:34:59;;;;;;;1999.90;999.90;;;;;;;15.45;81.88;98009.16;5052257;28;20053;-68
2021/08/28 05:37:25;;;;;;;1999.90;999.90;;;;;;;15.51;81.29;98007.69;5051034;28;20045;-68
2021/08/28 05:39:52;;;;;;;1999.90;999.90;;;;;;;15.21;81.18;98007.47;5051822;28;20045;-68
2021/08/28 05:42:18;;;;;;;1999.90;999.90;;;;;;;15.05;81.79;98005.53;5051301;28;20049;-68
2021/08/28 05:44:45;;;;;;;1999.90;999.90;;;;;;;14.94;82.02;98012.84;5051533;28;20093;-68
2021/08/28 05:47:12;;;;;;;1999.90;999.90;;;;;;;15.07;81.97;98008.75;5051462;28;20041;-68
2021/08/28 05:49:38;;;;;;;1999.90;999.90;;;;;;;15.08;81.95;98012.34;5050987;28;20103;-68
2021/08/28 05:52:05;;;;;;;1999.90;999.90;;;;;;;15.20;81.59;98014.19;5052586;28;20049;-68
2021/08/28 05:54:32;;;;;;;1999.90;999.90;;;;;;;15.16;82.08;98016.13;5051546;28;20099;-68
2021/08/28 05:56:59;;;;;;;1999.90;999.90;;;;;;;15.60;80.94;98015.81;5050614;28;20079;-68
2021/08/28 05:59:25;;;;;;;1999.90;999.90;;;;;;;15.66;80.83;98017.97;5051622;28;20048;-68
2021/08/28 06:01:52;;;;;;;1999.90;999.90;;;;;;;15.76;79.96;98016.53;5051250;28;20067;-68
2021/08/28 06:04:20;;;;;;;1999.90;999.90;;;;;;;15.21;80.14;98015.81;5051832;28;20049;-68
2021/08/28 06:06:46;;;;;;;1999.90;999.90;;;;;;;15.34;80.73;98014.50;5050314;28;20053;-68
2021/08/28 06:09:13;;;;;;;1999.90;999.90;;;;;;;15.35;81.25;98016.13;5049676;28;20391;-68
2021/08/28 06:11:40;;;;;;;1999.90;999.90;;;;;;;15.51;80.30;98013.25;5051086;28;20388;-67
2021/08/28 06:14:06;;;;;;;1999.90;999.90;;;;;;;15.35;81.08;98021.72;5051071;28;20044;-69
2021/08/28 06:16:33;;;;;;;1999.90;999.90;;;;;;;16.00;80.25;98014.63;5062555;28;20448;-69
2021/08/28 06:19:00;;;;;;;1999.90;999.90;;;;;;;16.08;79.40;98010.81;5057240;28;20049;-69
2021/08/28 06:21:27;;;;;;;1999.90;999.90;;;;;;;16.43;78.43;98012.59;5050995;28;20041;-68
2021/08/28 06:23:54;;;;;;;1999.90;999.90;;;;;;;16.69;77.49;98019.41;5050645;28;20397;-68
2021/08/28 06:26:20;;;;;;;1999.90;999.90;;;;;;;16.62;76.78;98020.09;5050900;28;20040;-69
2021/08/28 06:28:47;;;;;;;1999.90;999.90;;;;;;;16.68;77.00;98017.78;5051041;28;20071;-69
2021/08/28 06:31:14;;;;;;;1999.90;999.90;;;;;;;16.86;76.73;98024.44;5051396;28;20430;-69
2021/08/28 06:33:41;;;;;;;1999.90;999.90;;;;;;;17.00;76.03;98021.13;5050539;28;20095;-69
2021/08/28 06:36:08;;;;;;;1999.90;999.90;;;;;;;16.94;76.44;98016.22;5050975;28;20041;-68
2021/08/28 06:38:34;;;;;;;1999.90;999.90;;;;;;;16.96;76.38;98013.88;5049341;28;20114;-68
2021/08/28 06:41:04;;;;;;;1999.90;999.90;;;;;;;16.76;76.30;98013.91;5051699;28;20408;-68
2021/08/28 06:43:31;;;;;;;1999.90;999.90;;;;;;;16.59;75.92;98014.47;5050777;28;20114;-69
2021/08/28 06:45:58;;;;;;;1999.90;999.90;;;;;;;16.07;78.87;98011.97;5051730;28;20045;-67
2021/08/28 06:48:24;;;;;;;1999.90;999.90;;;;;;;16.10;79.50;98014.03;5055897;28;20330;-67
2021/08/28 06:50:51;;;;;;;1999.90;999.90;;;;;;;16.70;78.93;98010.66;5054603;28;20045;-67
2021/08/28 06:53:18;;;;;;;1999.90;999.90;;;;;;;17.07;77.51;98014.81;5052678;28;20126;-67
2021/08/28 06:55:44;;;;;;;1999.90;999.90;;;;;;;17.24;76.81;98010.69;5055662;28;20049;-67
2021/08/28 06:58:11;;;;;;;1999.90;999.90;;;;;;;16.73;76.36;98009.09;5054377;28;20056;-68
2021/08/28 07:00:38;;;;;;;1999.90;999.90;;;;;;;16.65;77.71;98012.97;5053289;28;20396;-67
2021/08/28 07:03:04;;;;;;;1999.90;999.90;;;;;;;16.58;78.74;98013.63;5054823;28;20504;-67
2021/08/28 07:05:31;;;;;;;1999.90;999.90;;;;;;;17.05;76.16;98012.41;5054922;28;20057;-67
2021/08/28 07:07:58;;;;;;;1999.90;999.90;;;;;;;16.84;77.20;98015.66;5054222;28;20051;-67
2021/08/28 07:10:25;;;;;;;1999.90;999.90;;;;;;;17.18;76.89;98015.78;5053986;28;20098;-67
2021/08/28 07:12:52;;;;;;;1999.90;999.90;;;;;;;17.75;75.43;98017.69;5055751;28;20052;-67
2021/08/28 07:15:19;;;;;;;1999.90;999.90;;;;;;;17.34;75.00;98024.00;5054217;28;20045;-67
2021/08/28 07:17:45;;;;;;;1999.90;999.90;;;;;;;17.44;74.98;98019.69;5053455;28;20091;-67
2021/08/28 07:20:13;;;;;;;1999.90;999.90;;;;;;;17.69;75.25;98008.81;5055690;28;20082;-67
2021/08/28 07:22:40;;;;;;;1999.90;999.90;;;;;;;18.09;73.42;98014.91;5054043;28;20434;-67
2021/08/28 07:25:07;;;;;;;1999.90;999.90;;;;;;;18.34;72.72;98015.13;5052994;28;20045;-68
2021/08/28 07:27:34;;;;;;;1999.90;999.90;;;;;;;18.75;71.38;98008.66;5052980;28;20049;-67
2021/08/28 07:30:00;;;;;;;1999.90;999.90;;;;;;;18.42;72.11;98011.19;5055459;28;20079;-67
2021/08/28 07:32:27;;;;;;;1999.90;999.90;;;;;;;18.60;71.03;98016.94;5054211;28;20142;-67
2021/08/28 07:34:55;;;;;;;1999.90;999.90;;;;;;;18.76;71.45;98007.47;5070274;28;20053;-67
2021/08/28 07:37:22;;;;;;;1999.90;999.90;;;;;;;18.69;71.99;98013.81;5055361;28;20102;-67
2021/08/28 07:39:49;;;;;;;1999.90;999.90;;;;;;;19.02;70.26;98011.28;5052628;28;20106;-67
2021/08/28 07:42:16;;;;;;;1999.90;999.90;;;;;;;18.88;69.38;98012.78;5054847;28;20049;-67
2021/08/28 07:44:43;;;;;;;1999.90;999.90;;;;;;;19.02;69.97;98017.69;5054211;28;20327;-67
2021/08/28 07:47:10;;;;;;;1999.90;999.90;;;;;;;18.95;70.16;98018.44;5054566;28;20330;-66
2021/08/28 07:49:36;;;;;;;1999.90;999.90;;;;;;;18.79;70.62;98024.28;5054690;28;20648;-67
2021/08/28 07:52:03;;;;;;;1999.90;999.90;;;;;;;18.69;70.86;98021.41;5053321;28;20045;-67
2021/08/28 07:54:30;;;;;;;1999.90;999.90;;;;;;;19.28;71.36;98019.44;5053209;28;20065;-68
2021/08/28 07:56:59;;;;;;;1999.90;999.90;;;;;;;19.66;69.61;98022.81;5054521;28;20139;-68
2021/08/28 07:59:26;;;;;;;1999.90;999.90;;;;;;;19.59;69.29;98017.19;5053712;28;20113;-67
2021/08/28 08:01:53;;;;;;;1999.90;999.90;;;;;;;19.19;71.34;98013.41;5054947;28;20045;-68
2021/08/28 08:04:20;;;;;;;1999.90;999.90;;;;;;;19.52;69.10;98017.16;5052471;28;20049;-68
2021/08/28 08:06:47;;;;;;;1999.90;999.90;;;;;;;19.99;68.18;98011.72;5053652;28;20599;-67
2021/08/28 08:09:15;;;;;;;1999.90;999.90;;;;;;;19.91;68.86;98012.94;5055307;28;20108;-68
2021/08/28 08:11:42;;;;;;;1999.90;999.90;;;;;;;20.53;67.94;98007.00;5054413;28;20045;-68
2021/08/28 08:14:08;;;;;;;1999.90;999.90;;;;;;;20.26;66.68;98012.19;5054179;28;20053;-67
2021/08/28 08:16:35;;;;;;;1999.90;999.90;;;;;;;21.08;64.58;98010.59;5054088;28;20114;-68
2021/08/28 08:19:02;;;;;;;1999.90;999.90;;;;;;;20.59;64.50;98011.00;5054981;28;20103;-68
2021/08/28 08:21:29;;;;;;;1999.90;999.90;;;;;;;19.93;67.75;98005.69;5053762;28;20079;-67
2021/08/28 08:23:56;;;;;;;1999.90;999.90;;;;;;;20.15;66.82;98006.53;5053798;28;20045;-68
2021/08/28 08:26:23;;;;;;;1999.90;999.90;;;;;;;20.94;66.93;98017.03;5055505;28;20045;-68
2021/08/28 08:28:51;;;;;;;1999.90;999.90;;;;;;;20.73;64.33;98021.47;5049884;28;20076;-68
2021/08/28 08:31:18;;;;;;;1999.90;999.90;;;;;;;21.56;62.85;98012.88;5040990;28;20098;-68
2021/08/28 08:33:45;;;;;;;1999.90;999.90;;;;;;;21.10;63.77;98017.41;5055094;28;20049;-68
2021/08/28 08:36:11;;;;;;;1999.90;999.90;;;;;;;21.23;63.96;98023.41;5053842;28;20108;-68
2021/08/28 08:38:38;;;;;;;1999.90;999.90;;;;;;;21.02;63.22;98023.44;5053524;28;20045;-68
2021/08/28 08:41:05;;;;;;;1999.90;999.90;;;;;;;20.92;64.66;98033.50;5052320;28;20053;-68
2021/08/28 08:43:33;;;;;;;1999.90;999.90;;;;;;;19.48;66.86;98025.53;5054019;28;20057;-67
2021/08/28 08:46:00;;;;;;;1999.90;999.90;;;;;;;19.25;69.10;98017.44;5052828;28;20044;-67
2021/08/28 08:48:27;;;;;;;1999.90;999.90;;;;;;;19.32;68.38;98023.06;5052524;28;20053;-68
2021/08/28 08:50:54;;;;;;;1999.90;999.90;;;;;;;19.93;68.16;98024.53;5053598;28;20094;-68
2021/08/28 08:53:28;;;;;;;1999.90;999.90;;;;;;;20.02;66.90;98022.97;5053638;28;20049;-68
2021/08/28 08:55:55;;;;;;;1999.90;999.90;;;;;;;20.21;66.38;98027.41;5053788;28;20049;-68
2021/08/28 08:58:22;;;;;;;1999.90;999.90;;;;;;;19.77;67.74;98025.69;5053736;28;20048;-68
2021/08/28 09:00:48;;;;;;;1999.90;999.90;;;;;;;19.93;65.98;98032.97;5052865;28;20114;-67
2021/08/28 09:03:19;;;;;;;1999.90;999.90;;;;;;;20.45;65.47;98027.84;5053207;28;20044;-68
2021/08/28 09:05:47;;;;;;;1999.90;999.90;;;;;;;20.15;66.03;98034.63;5061160;28;20499;-68
2021/08/28 09:08:14;;;;;;;1999.90;999.90;;;;;;;;;;5054744;28;20040;-67
2021/08/28 09:10:41;;;;;;;1999.90;999.90;;;;;;;19.82;66.23;98027.31;5050555;28;20115;-68
2021/08/28 09:13:13;;;;;;;1999.90;999.90;;;;;;;19.92;66.52;98029.38;5051601;28;22971;-68
2021/08/28 09:15:45;;;;;;;1999.90;999.90;;;;;;;20.10;65.92;98037.81;5051833;28;20052;-68
2021/08/28 09:18:28;;;;;;;1999.90;999.90;;;;;;;20.38;64.55;98030.63;5051388;28;20045;-68
2021/08/28 09:20:58;;;;;;;1999.90;999.90;;;;;;;21.08;63.22;98028.25;5045893;28;20424;-68
2021/08/28 09:23:25;;;;;;;1999.90;999.90;;;;;;;21.05;63.05;98020.63;5046657;28;20426;-68
2021/08/28 09:25:55;;;;;;;1999.90;999.90;;;;;;;20.63;65.27;98027.06;5048594;28;20572;-68
2021/08/28 09:28:39;;;;;;;1999.90;999.90;;;;;;;20.45;64.06;98029.84;5048569;28;20123;-67
2021/08/28 09:31:06;;;;;;;1999.90;999.90;;;;;;;20.54;65.47;98027.44;5047047;28;20351;-68
2021/08/28 09:33:34;;;;;;;1999.90;999.90;;;;;;;20.13;62.88;98023.00;5049336;28;20045;-68
2021/08/28 09:36:02;;;;;;;1999.90;999.90;;;;;;;19.66;66.34;98022.81;5047356;28;20052;-68
2021/08/28 09:38:37;;;;;;;1999.90;999.90;;;;;;;20.39;63.67;98032.25;5047174;28;20049;-68
2021/08/28 09:41:04;;;;;;;1999.90;999.90;;;;;;;20.65;63.21;98028.28;5048944;28;20146;-68
2021/08/28 09:43:31;;;;;;;1999.90;999.90;;;;;;;21.36;60.85;98028.59;5047732;28;20110;-68
2021/08/28 09:46:07;;;;;;;1999.90;999.90;;;;;;;21.30;63.19;98022.56;5045487;28;20485;-68
2021/08/28 09:48:36;;;;;;;1999.90;999.90;;;;;;;21.34;60.42;98016.97;5048821;28;20166;-68
2021/08/28 09:51:02;;;;;;;1999.90;999.90;;;;;;;21.31;61.32;98020.59;5047114;28;20171;-68
2021/08/28 09:53:41;;;;;;;1999.90;999.90;;;;;;;22.40;57.94;98016.88;5046278;28;20045;-68
2021/08/28 09:56:09;;;;;;;1999.90;999.90;;;;;;;22.84;57.16;98020.94;5048678;28;20049;-68
2021/08/28 09:58:40;;;;;;;1999.90;999.90;;;;;;;22.71;58.80;98030.34;5047918;28;20445;-68
2021/08/28 10:01:06;;;;;;;1999.90;999.90;;;;;;;22.38;55.38;98024.94;5048143;28;20048;-68
2021/08/28 10:03:34;;;;;;;1999.90;999.90;;;;;;;21.63;58.52;98017.66;5047271;28;20366;-68
2021/08/28 10:06:02;;;;;;;1999.90;999.90;;;;;;;22.43;57.10;98021.69;5047367;28;20076;-68
2021/08/28 10:08:31;;;;;;;1999.90;999.90;;;;;;;23.00;55.03;98008.31;5048030;28;20053;-68
2021/08/28 10:11:00;;;;;;;1999.90;999.90;;;;;;;22.43;55.55;98018.84;5048937;28;20126;-68
2021/08/28 10:13:33;;;;;;;1999.90;999.90;;;;;;;22.17;55.64;98023.84;5049667;28;20057;-68
2021/08/28 10:16:00;;;;;;;1999.90;999.90;;;;;;;21.40;55.48;98016.13;5048830;28;20060;-67
2021/08/28 10:18:28;;;;;;;1999.90;999.90;;;;;;;20.18;59.50;98016.19;5057442;28;20049;-67
2021/08/28 10:21:00;;;;;;;1999.90;999.90;;;;;;;20.22;60.95;98017.00;5053092;28;20052;-68
2021/08/28 10:23:34;;;;;;;1999.90;999.90;;;;;;;21.83;56.68;98015.19;5052485;28;20045;-68
2021/08/28 10:26:02;;;;;;;1999.90;999.90;;;;;;;22.82;55.99;98011.31;5053070;28;20049;-68
2021/08/28 10:28:30;;;;;;;1999.90;999.90;;;;;;;23.94;51.97;98019.41;5035365;28;20131;-68
2021/08/28 10:30:57;;;;;;;1999.90;999.90;;;;;;;24.00;50.37;98022.56;5053657;28;20134;-68
2021/08/28 10:33:24;;;;;;;1999.90;999.90;;;;;;;22.85;53.03;98028.19;5052537;28;20044;-68
2021/08/28 10:35:51;;;;;;;1999.90;999.90;;;;;;;22.94;53.54;98024.91;5051839;28;20049;-68
2021/08/28 10:38:19;;;;;;;1999.90;999.90;;;;;;;23.37;54.07;98016.03;5053117;28;20052;-68
2021/08/28 10:40:53;;;;;;;1999.90;999.90;;;;;;;22.99;54.70;98013.16;5052114;28;20094;-68
2021/08/28 10:43:21;;;;;;;1999.90;999.90;;;;;;;22.93;53.41;98022.50;5051946;28;20049;-69
2021/08/28 10:45:48;;;;;;;1999.90;999.90;;;;;;;22.81;54.48;98030.25;5052186;28;20080;-68
2021/08/28 10:48:15;;;;;;;1999.90;999.90;;;;;;;22.50;54.59;98018.03;5053087;28;20049;-68
2021/08/28 10:50:43;;;;;;;1999.90;999.90;;;;;;;22.74;53.21;98021.84;5049644;28;20049;-68
2021/08/28 10:53:12;;;;;;;1999.90;999.90;;;;;;;22.63;53.57;98021.94;5051842;28;20736;-68
2021/08/28 10:55:44;;;;;;;1999.90;999.90;;;;;;;22.85;51.29;98030.19;5052201;28;20140;-68
2021/08/28 10:58:15;;;;;;;1999.90;999.90;;;;;;;23.30;51.74;98029.38;5052025;28;20480;-68